createdAt,value
2023-03-21T00:04:23.508Z,16.55
2023-03-21T00:09:26.524Z,17.17
2023-03-21T00:14:28.600Z,17.73
2023-03-21T00:19:30.393Z,17.48
2023-03-21T00:24:33.431Z,17.55
2023-03-21T00:29:35.092Z,16.48
2023-03-21T00:34:43.107Z,16.35
2023-03-21T00:39:51.800Z,16.55
2023-03-21T00:44:53.582Z,17.75
2023-03-21T00:49:55.371Z,17.87
2023-03-21T00:54:58.440Z,16.90
2023-03-21T01:00:00.195Z,17.08
2023-03-21T01:05:02.087Z,17.73
2023-03-21T01:10:06.406Z,16.00
2023-03-21T01:15:08.469Z,17.70
2023-03-21T01:20:11.834Z,18.25
2023-03-21T01:25:22.299Z,17.02
2023-03-21T01:30:24.968Z,15.98
2023-03-21T01:35:32.004Z,17.17
2023-03-21T01:40:41.069Z,17.50
2023-03-21T01:46:17.195Z,17.15
2023-03-21T01:51:19.744Z,17.30
2023-03-21T01:56:28.237Z,16.48
2023-03-21T02:01:30.934Z,18.37
2023-03-21T02:06:39.347Z,16.65
2023-03-21T02:23:43.812Z,19.00
2023-03-21T02:28:48.137Z,18.12
2023-03-21T02:34:21.732Z,18.03
2023-03-21T02:39:31.522Z,17.98
2023-03-21T02:44:41.232Z,18.77
2023-03-21T02:49:50.066Z,18.00
2023-03-21T02:54:54.815Z,17.73
2023-03-21T03:00:02.321Z,20.62
2023-03-21T03:05:20.660Z,19.30
2023-03-21T03:10:52.916Z,17.60
2023-03-21T03:16:04.303Z,16.75
2023-03-21T03:21:14.956Z,16.77
2023-03-21T03:26:21.013Z,17.98
2023-03-21T03:31:27.080Z,18.58
2023-03-21T03:36:33.769Z,17.67
2023-03-21T03:42:04.424Z,18.83
2023-03-21T03:47:07.490Z,17.30
2023-03-21T03:52:15.934Z,17.80
2023-03-21T03:57:19.749Z,17.98
2023-03-21T04:02:21.609Z,23.25
2023-03-21T04:07:23.278Z,18.10
2023-03-21T04:12:26.337Z,20.48
2023-03-21T04:17:28.017Z,23.02
2023-03-21T04:22:29.727Z,18.85
2023-03-21T04:27:32.786Z,19.05
2023-03-21T04:32:34.463Z,19.73
2023-03-21T04:37:36.860Z,18.73
2023-03-21T04:42:40.136Z,18.27
2023-03-21T04:47:42.055Z,19.75
2023-03-21T04:52:43.702Z,17.75
2023-03-21T04:57:46.858Z,17.33
2023-03-21T05:02:48.507Z,17.75
2023-03-21T05:07:50.262Z,17.73
2023-03-21T05:12:53.268Z,18.65
2023-03-21T05:17:55.023Z,19.35
2023-03-21T05:22:56.686Z,19.33
2023-03-21T05:27:59.736Z,17.83
2023-03-21T05:33:01.481Z,18.95
2023-03-21T05:38:03.128Z,23.90
2023-03-21T05:43:06.110Z,20.40
2023-03-21T05:48:08.396Z,19.98
2023-03-21T05:53:10.315Z,18.87
2023-03-21T05:58:13.353Z,20.52
2023-03-21T06:03:15.060Z,19.12
2023-03-21T06:08:16.759Z,19.05
2023-03-21T06:13:19.884Z,19.05
2023-03-21T06:18:21.567Z,22.77
2023-03-21T06:23:23.262Z,18.73
2023-03-21T06:28:26.403Z,20.00
2023-03-21T06:33:28.113Z,21.25
2023-03-21T06:38:29.833Z,20.05
2023-03-21T06:43:33.077Z,23.23
2023-03-21T06:48:34.751Z,26.98
2023-03-21T06:53:36.426Z,19.98
2023-03-21T06:58:39.730Z,19.30
2023-03-21T07:03:44.580Z,19.83
2023-03-21T07:08:46.246Z,18.67
2023-03-21T07:13:50.109Z,17.83
2023-03-21T07:18:52.176Z,18.00
2023-03-21T07:23:53.887Z,17.05
2023-03-21T07:28:57.054Z,17.25
2023-03-21T07:33:58.753Z,18.25
2023-03-21T07:39:00.453Z,17.58
2023-03-21T07:44:03.684Z,18.77
2023-03-21T07:49:05.427Z,20.02
2023-03-21T07:54:07.102Z,18.87
2023-03-21T07:59:10.167Z,19.08
2023-03-21T08:04:12.030Z,16.60
2023-03-21T08:09:13.702Z,14.40
2023-03-21T08:14:16.711Z,17.67
2023-03-21T08:19:18.528Z,16.02
2023-03-21T08:24:20.239Z,16.55
2023-03-21T08:29:23.422Z,21.33
2023-03-21T08:34:25.155Z,17.67
2023-03-21T08:39:26.932Z,19.02
2023-03-21T08:44:30.012Z,18.37
2023-03-21T08:49:31.710Z,19.23
2023-03-21T08:54:33.673Z,22.42
2023-03-21T08:59:36.874Z,18.23
2023-03-21T09:04:38.558Z,20.33
2023-03-21T09:09:40.669Z,17.58
2023-03-21T09:14:43.715Z,19.27
2023-03-21T09:19:45.730Z,20.20
2023-03-21T09:24:47.952Z,17.27
2023-03-21T09:29:51.085Z,21.42
2023-03-21T09:34:52.732Z,22.33
2023-03-21T09:39:54.440Z,17.65
2023-03-21T09:45:07.628Z,15.85
2023-03-21T09:50:15.423Z,16.98
2023-03-21T09:55:20.622Z,18.50
2023-03-21T10:05:33.377Z,18.50
2023-03-21T10:10:39.253Z,17.48
2023-03-21T10:15:42.513Z,16.33
2023-03-21T10:20:44.393Z,19.48
2023-03-21T10:25:48.794Z,15.18
2023-03-21T10:30:54.060Z,14.53
2023-03-21T10:35:59.809Z,17.40
2023-03-21T10:41:03.751Z,16.30
2023-03-21T10:46:09.412Z,15.00
2023-03-21T10:51:17.919Z,18.37
2023-03-21T10:56:24.023Z,16.00
2023-03-21T11:01:31.337Z,17.08
2023-03-21T11:06:37.602Z,18.23
2023-03-21T11:11:41.368Z,20.73
2023-03-21T11:16:44.649Z,20.90
2023-03-21T11:21:46.651Z,14.68
2023-03-21T11:26:49.709Z,17.10
2023-03-21T11:32:00.205Z,15.82
2023-03-21T11:37:03.180Z,25.40
2023-03-21T11:42:05.544Z,18.45
2023-03-21T11:47:13.124Z,22.08
2023-03-21T11:52:24.973Z,16.40
2023-03-21T11:57:35.706Z,17.08
2023-03-21T12:02:57.493Z,18.37
2023-03-21T12:08:07.784Z,19.55
2023-03-21T12:13:31.272Z,17.65
2023-03-21T12:18:52.216Z,17.92
2023-03-21T12:24:02.516Z,15.73
2023-03-21T12:29:18.026Z,18.12
2023-03-21T12:34:38.535Z,15.95
2023-03-21T12:39:41.148Z,19.20
2023-03-21T12:44:48.585Z,15.05
2023-03-21T12:49:57.685Z,15.32
2023-03-21T12:55:04.207Z,16.15
2023-03-21T13:00:14.169Z,14.68
2023-03-21T13:05:20.251Z,15.35
2023-03-21T13:10:22.383Z,15.05
2023-03-21T13:15:44.120Z,15.32
2023-03-21T13:20:49.814Z,13.68
2023-03-21T13:25:54.454Z,21.55
2023-03-21T13:31:17.056Z,14.32
2023-03-21T13:36:24.126Z,16.02
2023-03-21T13:41:30.892Z,15.52
2023-03-21T13:46:53.002Z,19.08
2023-03-21T13:52:18.834Z,16.00
2023-03-21T13:57:34.218Z,16.70
2023-03-21T14:02:38.376Z,16.10
2023-03-21T14:12:48.125Z,19.08
2023-03-21T14:17:51.246Z,23.08
2023-03-21T14:22:54.607Z,18.73
2023-03-21T14:27:59.836Z,17.62
2023-03-21T14:38:07.806Z,19.98
2023-03-21T14:43:11.768Z,23.93
2023-03-21T14:48:15.561Z,18.67
2023-03-21T14:53:21.498Z,19.33
2023-03-21T14:58:23.441Z,18.85
2023-03-21T15:03:25.231Z,23.40
2023-03-21T15:08:29.621Z,22.62
2023-03-21T15:13:34.974Z,23.43
2023-03-21T15:18:38.924Z,20.75
2023-03-21T15:23:44.682Z,20.52
2023-03-21T15:28:48.699Z,21.17
2023-03-21T15:33:52.583Z,21.37
2023-03-21T15:38:55.962Z,26.67
2023-03-21T15:44:05.411Z,31.45
2023-03-21T15:49:08.714Z,27.98
2023-03-21T15:54:15.899Z,27.98
2023-03-21T15:59:18.247Z,26.80
2023-03-21T16:04:20.088Z,20.92
2023-03-21T16:09:23.659Z,25.25
2023-03-21T16:14:26.811Z,28.08
2023-03-21T16:19:28.521Z,38.80
2023-03-21T16:24:31.613Z,33.00
2023-03-21T16:29:33.474Z,37.03
2023-03-21T16:34:35.232Z,33.40
2023-03-21T16:39:38.770Z,25.40
2023-03-21T16:44:40.473Z,30.35
2023-03-21T16:49:42.509Z,31.95
2023-03-21T16:54:45.530Z,28.15
2023-03-21T16:59:47.192Z,29.05
2023-03-21T17:04:48.893Z,25.88
2023-03-21T17:09:51.933Z,29.80
2023-03-21T17:14:53.582Z,23.30
2023-03-21T17:19:55.285Z,28.65
2023-03-21T17:24:58.387Z,24.92
2023-03-21T17:30:00.301Z,28.10
2023-03-21T17:35:02.225Z,29.40
2023-03-21T17:40:06.685Z,25.42
2023-03-21T17:45:09.235Z,28.50
2023-03-21T17:50:15.397Z,27.77
2023-03-21T17:55:19.300Z,25.90
2023-03-21T18:00:23.195Z,30.33
2023-03-21T18:05:25.478Z,26.95
2023-03-21T18:10:28.741Z,27.73
2023-03-21T18:15:30.831Z,28.10
2023-03-21T18:20:50.809Z,31.30
2023-03-21T18:25:55.549Z,32.10
2023-03-21T18:31:09.473Z,30.52
2023-03-21T18:36:14.407Z,28.67
2023-03-21T18:41:17.447Z,34.38
2023-03-21T18:46:19.257Z,29.27
2023-03-21T18:51:20.948Z,41.08
2023-03-21T18:57:13.260Z,42.65
2023-03-21T19:01:45.956Z,39.88
2023-03-21T19:06:48.341Z,47.45
2023-03-21T19:11:51.403Z,37.47
2023-03-21T19:18:02.974Z,35.60
2023-03-21T19:22:15.065Z,38.28
2023-03-21T19:27:18.116Z,48.97
2023-03-21T19:32:23.171Z,46.13
2023-03-21T19:42:30.666Z,35.65
2023-03-21T19:47:35.417Z,38.75
2023-03-21T19:52:37.181Z,37.08
2023-03-21T19:57:40.309Z,40.40
2023-03-21T20:02:42.199Z,39.42
2023-03-21T20:07:43.896Z,35.58
2023-03-21T20:12:47.098Z,44.03
2023-03-21T20:17:49.297Z,38.50
2023-03-21T20:23:08.406Z,44.08
2023-03-21T20:28:17.079Z,44.85
2023-03-21T20:33:27.050Z,41.70
2023-03-21T20:38:29.405Z,57.75
2023-03-21T20:48:54.404Z,50.88
2023-03-21T20:53:56.059Z,50.70
2023-03-21T20:59:14.583Z,51.97
2023-03-21T21:04:17.376Z,57.35
2023-03-21T21:09:19.007Z,53.30
2023-03-21T21:14:21.992Z,41.33
2023-03-21T21:19:23.646Z,43.97
2023-03-21T21:24:25.455Z,45.38
2023-03-21T21:29:28.536Z,41.17
2023-03-21T21:34:30.278Z,40.85
2023-03-21T21:39:32.117Z,36.35
2023-03-21T21:44:35.210Z,40.22
2023-03-21T21:49:36.930Z,42.13
2023-03-21T21:54:38.930Z,51.00
2023-03-21T21:59:41.984Z,47.80
2023-03-21T22:04:43.775Z,46.88
2023-03-21T22:09:45.418Z,51.47
2023-03-21T22:14:48.498Z,55.75
2023-03-21T22:20:04.301Z,56.05
2023-03-21T22:25:09.740Z,50.38
2023-03-21T22:30:16.036Z,58.47
2023-03-21T22:35:17.911Z,58.87
2023-03-21T22:40:19.744Z,69.70
2023-03-21T22:45:22.890Z,52.85
2023-03-21T22:50:24.539Z,48.00
2023-03-21T22:55:26.264Z,48.75
2023-03-21T23:00:29.387Z,48.47
2023-03-21T23:05:31.456Z,45.05
2023-03-21T23:10:33.138Z,54.97
2023-03-21T23:15:36.183Z,46.60
2023-03-21T23:20:38.367Z,53.53
2023-03-21T23:25:42.369Z,48.80
2023-03-21T23:30:45.632Z,41.00
2023-03-21T23:35:47.362Z,35.17
2023-03-21T23:40:49.016Z,54.72
2023-03-21T23:45:52.233Z,59.75
2023-03-21T23:50:54.316Z,61.03
2023-03-21T23:55:56.140Z,58.97
